sensor_id;sensor_type;location;lat;lon;timestamp;P1;durP1;ratioP1;P2;durP2;ratioP2
64633;SDS011;51043;52.406;9.690;2023-03-19T00:00:28;6.83;;;5.50;;
64633;SDS011;51043;52.406;9.690;2023-03-19T00:02:55;6.93;;;5.40;;
64633;SDS011;51043;52.406;9.690;2023-03-19T00:05:24;8.40;;;5.60;;
64633;SDS011;51043;52.406;9.690;2023-03-19T00:07:51;6.93;;;5.30;;
64633;SDS011;51043;52.406;9.690;2023-03-19T00:10:18;9.87;;;5.70;;
64633;SDS011;51043;52.406;9.690;2023-03-19T00:12:46;7.47;;;5.97;;
64633;SDS011;51043;52.406;9.690;2023-03-19T00:15:18;6.80;;;5.97;;
64633;SDS011;51043;52.406;9.690;2023-03-19T00:17:45;9.00;;;5.77;;
64633;SDS011;51043;52.406;9.690;2023-03-19T00:20:12;8.13;;;5.50;;
64633;SDS011;51043;52.406;9.690;2023-03-19T00:22:40;6.73;;;5.50;;
64633;SDS011;51043;52.406;9.690;2023-03-19T00:25:07;6.77;;;6.03;;
64633;SDS011;51043;52.406;9.690;2023-03-19T00:27:35;8.03;;;5.93;;
64633;SDS011;51043;52.406;9.690;2023-03-19T00:30:04;7.77;;;6.33;;
64633;SDS011;51043;52.406;9.690;2023-03-19T00:32:32;7.37;;;6.40;;
64633;SDS011;51043;52.406;9.690;2023-03-19T00:35:04;7.47;;;5.53;;
64633;SDS011;51043;52.406;9.690;2023-03-19T00:37:33;7.07;;;6.10;;
64633;SDS011;51043;52.406;9.690;2023-03-19T00:40:00;7.17;;;6.13;;
64633;SDS011;51043;52.406;9.690;2023-03-19T00:42:33;7.30;;;6.07;;
64633;SDS011;51043;52.406;9.690;2023-03-19T00:45:04;10.00;;;6.87;;
64633;SDS011;51043;52.406;9.690;2023-03-19T00:47:32;8.27;;;6.00;;
64633;SDS011;51043;52.406;9.690;2023-03-19T00:49:59;7.30;;;6.37;;
64633;SDS011;51043;52.406;9.690;2023-03-19T00:52:26;8.83;;;6.77;;
64633;SDS011;51043;52.406;9.690;2023-03-19T00:54:53;7.90;;;6.60;;
64633;SDS011;51043;52.406;9.690;2023-03-19T00:57:20;9.83;;;7.83;;
64633;SDS011;51043;52.406;9.690;2023-03-19T00:59:49;9.43;;;7.23;;
64633;SDS011;51043;52.406;9.690;2023-03-19T01:02:18;9.43;;;8.00;;
64633;SDS011;51043;52.406;9.690;2023-03-19T01:04:47;8.57;;;7.63;;
64633;SDS011;51043;52.406;9.690;2023-03-19T01:07:15;8.83;;;6.93;;
64633;SDS011;51043;52.406;9.690;2023-03-19T01:09:41;9.13;;;8.03;;
64633;SDS011;51043;52.406;9.690;2023-03-19T01:12:08;8.07;;;7.27;;
64633;SDS011;51043;52.406;9.690;2023-03-19T01:14:36;10.30;;;7.33;;
64633;SDS011;51043;52.406;9.690;2023-03-19T01:17:02;11.27;;;8.47;;
64633;SDS011;51043;52.406;9.690;2023-03-19T01:19:29;12.07;;;9.60;;
64633;SDS011;51043;52.406;9.690;2023-03-19T01:21:59;10.00;;;8.40;;
64633;SDS011;51043;52.406;9.690;2023-03-19T01:24:30;14.10;;;11.57;;
64633;SDS011;51043;52.406;9.690;2023-03-19T01:26:58;10.77;;;8.87;;
64633;SDS011;51043;52.406;9.690;2023-03-19T01:29:30;12.03;;;9.50;;
64633;SDS011;51043;52.406;9.690;2023-03-19T01:32:05;16.13;;;9.77;;
64633;SDS011;51043;52.406;9.690;2023-03-19T01:34:43;10.83;;;9.50;;
64633;SDS011;51043;52.406;9.690;2023-03-19T01:37:13;11.10;;;8.67;;
64633;SDS011;51043;52.406;9.690;2023-03-19T01:39:41;10.83;;;9.33;;
64633;SDS011;51043;52.406;9.690;2023-03-19T01:42:11;11.33;;;9.97;;
64633;SDS011;51043;52.406;9.690;2023-03-19T01:45:26;12.03;;;10.40;;
64633;SDS011;51043;52.406;9.690;2023-03-19T01:48:28;18.03;;;12.30;;
64633;SDS011;51043;52.406;9.690;2023-03-19T01:51:13;16.20;;;12.67;;
64633;SDS011;51043;52.406;9.690;2023-03-19T01:53:44;14.00;;;12.07;;
64633;SDS011;51043;52.406;9.690;2023-03-19T01:56:22;16.47;;;13.57;;
64633;SDS011;51043;52.406;9.690;2023-03-19T01:59:14;14.10;;;11.27;;
64633;SDS011;51043;52.406;9.690;2023-03-19T02:02:03;13.73;;;12.10;;
64633;SDS011;51043;52.406;9.690;2023-03-19T02:04:36;16.40;;;12.80;;
64633;SDS011;51043;52.406;9.690;2023-03-19T02:07:05;15.30;;;12.47;;
64633;SDS011;51043;52.406;9.690;2023-03-19T02:09:33;15.60;;;12.03;;
64633;SDS011;51043;52.406;9.690;2023-03-19T02:12:00;15.23;;;12.33;;
64633;SDS011;51043;52.406;9.690;2023-03-19T02:14:27;16.57;;;12.37;;
64633;SDS011;51043;52.406;9.690;2023-03-19T02:16:54;15.47;;;12.17;;
64633;SDS011;51043;52.406;9.690;2023-03-19T02:19:42;22.80;;;15.93;;
64633;SDS011;51043;52.406;9.690;2023-03-19T02:22:24;20.27;;;15.30;;
64633;SDS011;51043;52.406;9.690;2023-03-19T02:24:57;26.33;;;17.70;;
64633;SDS011;51043;52.406;9.690;2023-03-19T02:27:28;25.73;;;19.13;;
64633;SDS011;51043;52.406;9.690;2023-03-19T02:29:56;25.67;;;19.00;;
64633;SDS011;51043;52.406;9.690;2023-03-19T02:32:23;26.23;;;17.70;;
64633;SDS011;51043;52.406;9.690;2023-03-19T02:34:52;23.03;;;17.43;;
64633;SDS011;51043;52.406;9.690;2023-03-19T02:37:20;26.53;;;18.10;;
64633;SDS011;51043;52.406;9.690;2023-03-19T02:40:00;23.97;;;18.17;;
64633;SDS011;51043;52.406;9.690;2023-03-19T02:42:38;23.77;;;17.33;;
64633;SDS011;51043;52.406;9.690;2023-03-19T02:45:05;22.97;;;17.80;;
64633;SDS011;51043;52.406;9.690;2023-03-19T02:47:35;20.87;;;16.70;;
64633;SDS011;51043;52.406;9.690;2023-03-19T02:50:02;25.20;;;18.07;;
64633;SDS011;51043;52.406;9.690;2023-03-19T02:52:29;28.97;;;17.97;;
64633;SDS011;51043;52.406;9.690;2023-03-19T02:54:56;23.47;;;18.07;;
64633;SDS011;51043;52.406;9.690;2023-03-19T02:57:23;25.77;;;18.50;;
64633;SDS011;51043;52.406;9.690;2023-03-19T02:59:50;23.00;;;18.30;;
64633;SDS011;51043;52.406;9.690;2023-03-19T03:02:17;25.07;;;18.30;;
64633;SDS011;51043;52.406;9.690;2023-03-19T03:04:46;24.10;;;18.37;;
64633;SDS011;51043;52.406;9.690;2023-03-19T03:07:13;25.80;;;18.70;;
64633;SDS011;51043;52.406;9.690;2023-03-19T03:09:40;26.07;;;19.67;;
64633;SDS011;51043;52.406;9.690;2023-03-19T03:12:08;21.20;;;17.60;;
64633;SDS011;51043;52.406;9.690;2023-03-19T03:14:35;23.07;;;18.23;;
64633;SDS011;51043;52.406;9.690;2023-03-19T03:17:03;23.80;;;17.37;;
64633;SDS011;51043;52.406;9.690;2023-03-19T03:19:30;26.77;;;17.17;;
64633;SDS011;51043;52.406;9.690;2023-03-19T03:21:58;21.63;;;16.97;;
64633;SDS011;51043;52.406;9.690;2023-03-19T03:24:28;23.20;;;17.57;;
64633;SDS011;51043;52.406;9.690;2023-03-19T03:26:56;22.97;;;17.17;;
64633;SDS011;51043;52.406;9.690;2023-03-19T03:29:27;24.10;;;16.53;;
64633;SDS011;51043;52.406;9.690;2023-03-19T03:31:59;19.83;;;15.40;;
64633;SDS011;51043;52.406;9.690;2023-03-19T03:34:27;20.13;;;15.83;;
64633;SDS011;51043;52.406;9.690;2023-03-19T03:36:55;18.47;;;14.80;;
64633;SDS011;51043;52.406;9.690;2023-03-19T03:39:24;19.30;;;14.10;;
64633;SDS011;51043;52.406;9.690;2023-03-19T03:41:54;17.97;;;13.80;;
64633;SDS011;51043;52.406;9.690;2023-03-19T03:44:46;15.53;;;13.67;;
64633;SDS011;51043;52.406;9.690;2023-03-19T03:47:14;18.77;;;13.67;;
64633;SDS011;51043;52.406;9.690;2023-03-19T03:49:41;16.37;;;13.50;;
64633;SDS011;51043;52.406;9.690;2023-03-19T03:52:08;19.10;;;13.93;;
64633;SDS011;51043;52.406;9.690;2023-03-19T03:54:35;17.93;;;13.73;;
64633;SDS011;51043;52.406;9.690;2023-03-19T03:57:02;19.73;;;14.43;;
64633;SDS011;51043;52.406;9.690;2023-03-19T03:59:30;16.77;;;14.40;;
64633;SDS011;51043;52.406;9.690;2023-03-19T04:02:00;15.63;;;14.03;;
64633;SDS011;51043;52.406;9.690;2023-03-19T04:04:27;17.77;;;13.50;;
64633;SDS011;51043;52.406;9.690;2023-03-19T04:06:54;19.60;;;13.07;;
64633;SDS011;51043;52.406;9.690;2023-03-19T04:09:50;18.63;;;13.70;;
64633;SDS011;51043;52.406;9.690;2023-03-19T04:12:17;15.80;;;12.63;;
64633;SDS011;51043;52.406;9.690;2023-03-19T04:14:45;21.13;;;13.30;;
64633;SDS011;51043;52.406;9.690;2023-03-19T04:17:12;16.20;;;12.60;;
64633;SDS011;51043;52.406;9.690;2023-03-19T04:19:39;18.97;;;13.23;;
64633;SDS011;51043;52.406;9.690;2023-03-19T04:22:06;15.47;;;11.87;;
64633;SDS011;51043;52.406;9.690;2023-03-19T04:24:33;16.60;;;11.60;;
64633;SDS011;51043;52.406;9.690;2023-03-19T04:27:01;18.63;;;11.80;;
64633;SDS011;51043;52.406;9.690;2023-03-19T04:29:31;14.17;;;10.73;;
64633;SDS011;51043;52.406;9.690;2023-03-19T04:31:59;15.63;;;10.77;;
64633;SDS011;51043;52.406;9.690;2023-03-19T04:34:26;16.73;;;11.57;;
64633;SDS011;51043;52.406;9.690;2023-03-19T04:36:58;11.60;;;9.70;;
64633;SDS011;51043;52.406;9.690;2023-03-19T04:39:25;13.47;;;10.60;;
64633;SDS011;51043;52.406;9.690;2023-03-19T04:41:53;10.97;;;9.60;;
64633;SDS011;51043;52.406;9.690;2023-03-19T04:44:25;11.33;;;9.90;;
64633;SDS011;51043;52.406;9.690;2023-03-19T04:46:53;13.90;;;10.33;;
64633;SDS011;51043;52.406;9.690;2023-03-19T04:49:21;14.57;;;9.53;;
64633;SDS011;51043;52.406;9.690;2023-03-19T04:51:49;15.03;;;10.97;;
64633;SDS011;51043;52.406;9.690;2023-03-19T04:54:16;15.33;;;10.50;;
64633;SDS011;51043;52.406;9.690;2023-03-19T04:56:44;17.07;;;10.40;;
64633;SDS011;51043;52.406;9.690;2023-03-19T04:59:10;15.07;;;11.30;;
64633;SDS011;51043;52.406;9.690;2023-03-19T05:01:37;15.57;;;10.83;;
64633;SDS011;51043;52.406;9.690;2023-03-19T05:04:07;18.57;;;10.83;;
64633;SDS011;51043;52.406;9.690;2023-03-19T05:06:35;14.97;;;10.77;;
64633;SDS011;51043;52.406;9.690;2023-03-19T05:09:04;16.43;;;10.83;;
64633;SDS011;51043;52.406;9.690;2023-03-19T05:11:32;12.13;;;10.33;;
64633;SDS011;51043;52.406;9.690;2023-03-19T05:14:04;12.60;;;10.37;;
64633;SDS011;51043;52.406;9.690;2023-03-19T05:16:47;11.47;;;9.63;;
64633;SDS011;51043;52.406;9.690;2023-03-19T05:19:15;13.03;;;10.17;;
64633;SDS011;51043;52.406;9.690;2023-03-19T05:21:42;12.43;;;9.63;;
64633;SDS011;51043;52.406;9.690;2023-03-19T05:24:10;15.63;;;10.00;;
64633;SDS011;51043;52.406;9.690;2023-03-19T05:26:39;12.17;;;10.27;;
64633;SDS011;51043;52.406;9.690;2023-03-19T05:29:20;15.63;;;10.60;;
64633;SDS011;51043;52.406;9.690;2023-03-19T05:31:59;13.43;;;10.47;;
64633;SDS011;51043;52.406;9.690;2023-03-19T05:34:29;15.00;;;10.17;;
64633;SDS011;51043;52.406;9.690;2023-03-19T05:36:57;13.70;;;10.00;;
64633;SDS011;51043;52.406;9.690;2023-03-19T05:39:24;12.60;;;9.20;;
64633;SDS011;51043;52.406;9.690;2023-03-19T05:41:52;13.20;;;9.80;;
64633;SDS011;51043;52.406;9.690;2023-03-19T05:44:24;13.63;;;10.10;;
64633;SDS011;51043;52.406;9.690;2023-03-19T05:47:22;12.93;;;9.30;;
64633;SDS011;51043;52.406;9.690;2023-03-19T05:49:53;16.83;;;9.17;;
64633;SDS011;51043;52.406;9.690;2023-03-19T05:52:20;10.70;;;8.50;;
64633;SDS011;51043;52.406;9.690;2023-03-19T05:54:48;12.03;;;8.70;;
64633;SDS011;51043;52.406;9.690;2023-03-19T05:57:39;13.80;;;9.07;;
64633;SDS011;51043;52.406;9.690;2023-03-19T06:00:10;9.50;;;8.27;;
64633;SDS011;51043;52.406;9.690;2023-03-19T06:02:38;12.60;;;7.40;;
64633;SDS011;51043;52.406;9.690;2023-03-19T06:05:18;10.87;;;7.50;;
64633;SDS011;51043;52.406;9.690;2023-03-19T06:07:45;9.33;;;7.07;;
64633;SDS011;51043;52.406;9.690;2023-03-19T06:10:35;12.00;;;7.37;;
64633;SDS011;51043;52.406;9.690;2023-03-19T06:13:07;14.83;;;6.97;;
64633;SDS011;51043;52.406;9.690;2023-03-19T06:15:37;11.37;;;6.80;;
64633;SDS011;51043;52.406;9.690;2023-03-19T06:18:10;12.83;;;7.40;;
64633;SDS011;51043;52.406;9.690;2023-03-19T06:20:37;10.50;;;6.97;;
64633;SDS011;51043;52.406;9.690;2023-03-19T06:23:04;10.17;;;6.70;;
64633;SDS011;51043;52.406;9.690;2023-03-19T06:25:31;10.43;;;6.83;;
64633;SDS011;51043;52.406;9.690;2023-03-19T06:27:58;12.73;;;6.87;;
64633;SDS011;51043;52.406;9.690;2023-03-19T06:30:32;12.47;;;6.60;;
64633;SDS011;51043;52.406;9.690;2023-03-19T06:33:01;12.37;;;6.60;;
64633;SDS011;51043;52.406;9.690;2023-03-19T06:35:31;9.93;;;6.47;;
64633;SDS011;51043;52.406;9.690;2023-03-19T06:37:58;9.50;;;6.00;;
64633;SDS011;51043;52.406;9.690;2023-03-19T06:40:25;7.20;;;5.40;;
64633;SDS011;51043;52.406;9.690;2023-03-19T06:42:55;10.63;;;5.67;;
64633;SDS011;51043;52.406;9.690;2023-03-19T06:45:22;9.17;;;5.30;;
64633;SDS011;51043;52.406;9.690;2023-03-19T06:47:49;9.07;;;5.20;;
64633;SDS011;51043;52.406;9.690;2023-03-19T06:50:18;7.23;;;4.97;;
64633;SDS011;51043;52.406;9.690;2023-03-19T06:52:45;5.23;;;4.37;;
64633;SDS011;51043;52.406;9.690;2023-03-19T06:55:16;9.60;;;5.27;;
64633;SDS011;51043;52.406;9.690;2023-03-19T06:57:49;6.20;;;4.53;;
64633;SDS011;51043;52.406;9.690;2023-03-19T07:00:19;6.97;;;4.63;;
64633;SDS011;51043;52.406;9.690;2023-03-19T07:02:46;7.47;;;4.67;;
64633;SDS011;51043;52.406;9.690;2023-03-19T07:05:16;6.80;;;4.70;;
64633;SDS011;51043;52.406;9.690;2023-03-19T07:07:43;7.93;;;4.80;;
64633;SDS011;51043;52.406;9.690;2023-03-19T07:10:10;7.23;;;4.93;;
64633;SDS011;51043;52.406;9.690;2023-03-19T07:12:40;10.63;;;4.87;;
64633;SDS011;51043;52.406;9.690;2023-03-19T07:15:07;7.13;;;4.57;;
64633;SDS011;51043;52.406;9.690;2023-03-19T07:17:35;7.33;;;5.00;;
64633;SDS011;51043;52.406;9.690;2023-03-19T07:20:02;9.03;;;4.57;;
64633;SDS011;51043;52.406;9.690;2023-03-19T07:22:34;6.40;;;4.40;;
64633;SDS011;51043;52.406;9.690;2023-03-19T07:25:01;8.40;;;4.60;;
64633;SDS011;51043;52.406;9.690;2023-03-19T07:27:28;7.97;;;4.70;;
64633;SDS011;51043;52.406;9.690;2023-03-19T07:30:04;7.57;;;4.43;;
64633;SDS011;51043;52.406;9.690;2023-03-19T07:32:35;6.93;;;4.33;;
64633;SDS011;51043;52.406;9.690;2023-03-19T07:35:02;6.77;;;4.30;;
64633;SDS011;51043;52.406;9.690;2023-03-19T07:37:29;6.27;;;4.07;;
64633;SDS011;51043;52.406;9.690;2023-03-19T07:40:00;8.87;;;4.93;;
64633;SDS011;51043;52.406;9.690;2023-03-19T07:42:27;10.20;;;4.73;;
64633;SDS011;51043;52.406;9.690;2023-03-19T07:44:54;8.33;;;4.40;;
64633;SDS011;51043;52.406;9.690;2023-03-19T07:47:21;9.17;;;4.10;;
64633;SDS011;51043;52.406;9.690;2023-03-19T07:49:54;7.43;;;4.40;;
64633;SDS011;51043;52.406;9.690;2023-03-19T07:52:22;8.57;;;4.23;;
64633;SDS011;51043;52.406;9.690;2023-03-19T07:54:49;7.23;;;4.20;;
64633;SDS011;51043;52.406;9.690;2023-03-19T07:57:16;6.93;;;4.07;;
64633;SDS011;51043;52.406;9.690;2023-03-19T07:59:43;8.17;;;4.27;;
64633;SDS011;51043;52.406;9.690;2023-03-19T08:02:10;7.70;;;4.40;;
64633;SDS011;51043;52.406;9.690;2023-03-19T08:04:38;8.63;;;4.13;;
64633;SDS011;51043;52.406;9.690;2023-03-19T08:07:05;10.63;;;4.10;;
64633;SDS011;51043;52.406;9.690;2023-03-19T08:09:33;6.93;;;3.70;;
64633;SDS011;51043;52.406;9.690;2023-03-19T08:12:00;6.93;;;3.63;;
64633;SDS011;51043;52.406;9.690;2023-03-19T08:14:27;11.57;;;3.67;;
64633;SDS011;51043;52.406;9.690;2023-03-19T08:16:56;6.37;;;3.37;;
64633;SDS011;51043;52.406;9.690;2023-03-19T08:19:24;6.37;;;3.80;;
64633;SDS011;51043;52.406;9.690;2023-03-19T08:21:51;7.50;;;3.37;;
64633;SDS011;51043;52.406;9.690;2023-03-19T08:24:18;5.53;;;3.40;;
64633;SDS011;51043;52.406;9.690;2023-03-19T08:26:45;8.40;;;3.60;;
64633;SDS011;51043;52.406;9.690;2023-03-19T08:29:12;7.00;;;3.50;;
64633;SDS011;51043;52.406;9.690;2023-03-19T08:31:39;5.20;;;3.23;;
64633;SDS011;51043;52.406;9.690;2023-03-19T08:34:07;7.43;;;3.80;;
64633;SDS011;51043;52.406;9.690;2023-03-19T08:36:35;8.70;;;3.37;;
64633;SDS011;51043;52.406;9.690;2023-03-19T08:39:02;8.77;;;2.93;;
64633;SDS011;51043;52.406;9.690;2023-03-19T08:41:29;4.55;;;2.70;;
64633;SDS011;51043;52.406;9.690;2023-03-19T08:44:00;6.18;;;2.38;;
64633;SDS011;51043;52.406;9.690;2023-03-19T08:46:26;7.45;;;2.90;;
64633;SDS011;51043;52.406;9.690;2023-03-19T08:48:57;4.88;;;2.47;;
64633;SDS011;51043;52.406;9.690;2023-03-19T08:51:24;4.13;;;2.40;;
64633;SDS011;51043;52.406;9.690;2023-03-19T08:53:52;6.13;;;2.33;;
64633;SDS011;51043;52.406;9.690;2023-03-19T08:56:19;7.40;;;2.65;;
64633;SDS011;51043;52.406;9.690;2023-03-19T08:58:46;5.55;;;2.70;;
64633;SDS011;51043;52.406;9.690;2023-03-19T09:01:13;3.38;;;2.17;;
64633;SDS011;51043;52.406;9.690;2023-03-19T09:03:41;4.47;;;2.05;;
64633;SDS011;51043;52.406;9.690;2023-03-19T09:06:09;5.10;;;2.00;;
64633;SDS011;51043;52.406;9.690;2023-03-19T09:08:37;3.88;;;2.17;;
64633;SDS011;51043;52.406;9.690;2023-03-19T09:11:07;3.80;;;2.15;;
64633;SDS011;51043;52.406;9.690;2023-03-19T09:13:36;4.13;;;2.25;;
64633;SDS011;51043;52.406;9.690;2023-03-19T09:16:03;5.65;;;1.80;;
64633;SDS011;51043;52.406;9.690;2023-03-19T09:18:30;2.28;;;1.50;;
64633;SDS011;51043;52.406;9.690;2023-03-19T09:21:01;3.58;;;1.70;;
64633;SDS011;51043;52.406;9.690;2023-03-19T09:23:28;4.25;;;1.80;;
64633;SDS011;51043;52.406;9.690;2023-03-19T09:25:55;4.30;;;1.98;;
64633;SDS011;51043;52.406;9.690;2023-03-19T09:28:22;5.90;;;1.77;;
64633;SDS011;51043;52.406;9.690;2023-03-19T09:30:49;3.33;;;1.75;;
64633;SDS011;51043;52.406;9.690;2023-03-19T09:33:17;4.10;;;1.80;;
64633;SDS011;51043;52.406;9.690;2023-03-19T09:35:49;3.53;;;1.77;;
64633;SDS011;51043;52.406;9.690;2023-03-19T09:38:18;3.60;;;1.70;;
64633;SDS011;51043;52.406;9.690;2023-03-19T09:40:46;3.50;;;1.80;;
64633;SDS011;51043;52.406;9.690;2023-03-19T09:46:24;5.20;;;1.80;;
64633;SDS011;51043;52.406;9.690;2023-03-19T09:48:57;5.10;;;1.75;;
64633;SDS011;51043;52.406;9.690;2023-03-19T09:57:12;4.55;;;1.88;;
64633;SDS011;51043;52.406;9.690;2023-03-19T09:59:40;5.28;;;2.10;;
64633;SDS011;51043;52.406;9.690;2023-03-19T10:13:06;5.15;;;2.10;;
64633;SDS011;51043;52.406;9.690;2023-03-19T10:15:51;3.13;;;1.80;;
64633;SDS011;51043;52.406;9.690;2023-03-19T10:18:21;2.70;;;1.75;;
64633;SDS011;51043;52.406;9.690;2023-03-19T10:20:57;4.13;;;1.92;;
64633;SDS011;51043;52.406;9.690;2023-03-19T10:26:17;3.30;;;1.88;;
64633;SDS011;51043;52.406;9.690;2023-03-19T10:28:57;5.00;;;1.95;;
64633;SDS011;51043;52.406;9.690;2023-03-19T10:31:29;4.97;;;2.72;;
64633;SDS011;51043;52.406;9.690;2023-03-19T10:37:22;4.88;;;1.80;;
64633;SDS011;51043;52.406;9.690;2023-03-19T10:39:54;3.28;;;1.77;;
64633;SDS011;51043;52.406;9.690;2023-03-19T10:42:34;5.03;;;2.10;;
64633;SDS011;51043;52.406;9.690;2023-03-19T10:45:29;52.03;;;10.68;;
64633;SDS011;51043;52.406;9.690;2023-03-19T10:48:03;6.82;;;1.85;;
64633;SDS011;51043;52.406;9.690;2023-03-19T10:50:37;4.72;;;2.33;;
64633;SDS011;51043;52.406;9.690;2023-03-19T10:55:56;3.97;;;1.92;;
64633;SDS011;51043;52.406;9.690;2023-03-19T10:58:27;3.33;;;1.70;;
64633;SDS011;51043;52.406;9.690;2023-03-19T11:01:02;6.00;;;2.10;;
64633;SDS011;51043;52.406;9.690;2023-03-19T11:03:37;5.53;;;2.58;;
64633;SDS011;51043;52.406;9.690;2023-03-19T11:08:34;10.52;;;3.90;;
64633;SDS011;51043;52.406;9.690;2023-03-19T11:11:02;18.10;;;4.75;;
64633;SDS011;51043;52.406;9.690;2023-03-19T11:13:31;7.00;;;2.63;;
64633;SDS011;51043;52.406;9.690;2023-03-19T11:16:03;5.15;;;2.08;;
64633;SDS011;51043;52.406;9.690;2023-03-19T11:18:35;10.10;;;3.58;;
64633;SDS011;51043;52.406;9.690;2023-03-19T11:21:05;8.15;;;2.88;;
64633;SDS011;51043;52.406;9.690;2023-03-19T11:23:40;3.85;;;2.08;;
64633;SDS011;51043;52.406;9.690;2023-03-19T11:26:07;10.13;;;2.83;;
64633;SDS011;51043;52.406;9.690;2023-03-19T11:28:36;6.13;;;2.65;;
64633;SDS011;51043;52.406;9.690;2023-03-19T11:45:24;3.63;;;2.00;;
64633;SDS011;51043;52.406;9.690;2023-03-19T11:48:05;4.25;;;2.13;;
64633;SDS011;51043;52.406;9.690;2023-03-19T11:59:11;5.63;;;1.98;;
64633;SDS011;51043;52.406;9.690;2023-03-19T12:01:56;5.75;;;2.25;;
64633;SDS011;51043;52.406;9.690;2023-03-19T12:09:52;6.88;;;2.05;;
64633;SDS011;51043;52.406;9.690;2023-03-19T12:15:24;2.42;;;1.80;;
64633;SDS011;51043;52.406;9.690;2023-03-19T12:18:06;4.65;;;1.88;;
64633;SDS011;51043;52.406;9.690;2023-03-19T12:23:49;3.42;;;1.83;;
64633;SDS011;51043;52.406;9.690;2023-03-19T12:29:13;6.00;;;1.80;;
64633;SDS011;51043;52.406;9.690;2023-03-19T12:32:12;4.35;;;1.63;;
64633;SDS011;51043;52.406;9.690;2023-03-19T12:34:56;5.35;;;1.92;;
64633;SDS011;51043;52.406;9.690;2023-03-19T12:37:41;2.42;;;1.45;;
64633;SDS011;51043;52.406;9.690;2023-03-19T12:40:26;3.63;;;1.55;;
64633;SDS011;51043;52.406;9.690;2023-03-19T12:43:16;5.07;;;1.70;;
64633;SDS011;51043;52.406;9.690;2023-03-19T12:45:55;3.08;;;1.63;;
64633;SDS011;51043;52.406;9.690;2023-03-19T12:48:30;8.43;;;1.67;;
64633;SDS011;51043;52.406;9.690;2023-03-19T12:51:08;3.90;;;1.70;;
64633;SDS011;51043;52.406;9.690;2023-03-19T12:53:55;2.95;;;1.60;;
64633;SDS011;51043;52.406;9.690;2023-03-19T12:56:51;2.67;;;1.60;;
64633;SDS011;51043;52.406;9.690;2023-03-19T12:59:33;3.88;;;1.77;;
64633;SDS011;51043;52.406;9.690;2023-03-19T13:02:11;4.57;;;1.60;;
64633;SDS011;51043;52.406;9.690;2023-03-19T13:04:54;3.88;;;1.80;;
64633;SDS011;51043;52.406;9.690;2023-03-19T13:07:27;2.67;;;1.55;;
64633;SDS011;51043;52.406;9.690;2023-03-19T13:10:16;3.35;;;1.90;;
64633;SDS011;51043;52.406;9.690;2023-03-19T13:12:45;4.22;;;1.90;;
64633;SDS011;51043;52.406;9.690;2023-03-19T13:21:23;5.38;;;1.88;;
64633;SDS011;51043;52.406;9.690;2023-03-19T13:24:15;4.35;;;2.20;;
64633;SDS011;51043;52.406;9.690;2023-03-19T13:26:51;4.38;;;2.20;;
64633;SDS011;51043;52.406;9.690;2023-03-19T13:29:27;4.18;;;2.10;;
64633;SDS011;51043;52.406;9.690;2023-03-19T13:31:59;2.80;;;2.00;;
64633;SDS011;51043;52.406;9.690;2023-03-19T13:34:30;4.72;;;2.70;;
64633;SDS011;51043;52.406;9.690;2023-03-19T13:39:30;6.43;;;2.28;;
64633;SDS011;51043;52.406;9.690;2023-03-19T13:47:47;4.35;;;3.03;;
64633;SDS011;51043;52.406;9.690;2023-03-19T13:52:46;3.83;;;2.90;;
64633;SDS011;51043;52.406;9.690;2023-03-19T14:03:54;4.97;;;3.40;;
64633;SDS011;51043;52.406;9.690;2023-03-19T14:06:02;5.55;;;3.58;;
64633;SDS011;51043;52.406;9.690;2023-03-19T14:08:33;8.07;;;4.05;;
64633;SDS011;51043;52.406;9.690;2023-03-19T14:11:09;3.78;;;3.20;;
64633;SDS011;51043;52.406;9.690;2023-03-19T14:13:46;4.07;;;3.50;;
64633;SDS011;51043;52.406;9.690;2023-03-19T14:16:16;9.38;;;3.80;;
64633;SDS011;51043;52.406;9.690;2023-03-19T14:18:56;7.22;;;3.53;;
64633;SDS011;51043;52.406;9.690;2023-03-19T14:21:33;5.00;;;3.42;;
64633;SDS011;51043;52.406;9.690;2023-03-19T14:27:28;6.72;;;3.53;;
64633;SDS011;51043;52.406;9.690;2023-03-19T14:30:02;4.63;;;3.38;;
64633;SDS011;51043;52.406;9.690;2023-03-19T14:32:43;3.88;;;2.90;;
64633;SDS011;51043;52.406;9.690;2023-03-19T14:35:14;4.45;;;3.00;;
64633;SDS011;51043;52.406;9.690;2023-03-19T14:37:47;4.85;;;3.00;;
64633;SDS011;51043;52.406;9.690;2023-03-19T14:40:53;2.95;;;2.53;;
64633;SDS011;51043;52.406;9.690;2023-03-19T14:43:26;4.38;;;2.97;;
64633;SDS011;51043;52.406;9.690;2023-03-19T14:55:00;6.57;;;3.28;;
64633;SDS011;51043;52.406;9.690;2023-03-19T14:57:33;5.25;;;3.13;;
64633;SDS011;51043;52.406;9.690;2023-03-19T15:00:03;4.63;;;3.22;;
64633;SDS011;51043;52.406;9.690;2023-03-19T15:02:36;10.75;;;5.75;;
64633;SDS011;51043;52.406;9.690;2023-03-19T15:05:28;4.00;;;3.05;;
64633;SDS011;51043;52.406;9.690;2023-03-19T15:08:02;7.05;;;2.75;;
64633;SDS011;51043;52.406;9.690;2023-03-19T15:10:40;10.15;;;5.70;;
64633;SDS011;51043;52.406;9.690;2023-03-19T15:18:40;3.95;;;2.90;;
64633;SDS011;51043;52.406;9.690;2023-03-19T15:21:10;4.55;;;2.92;;
64633;SDS011;51043;52.406;9.690;2023-03-19T15:23:38;4.05;;;2.92;;
64633;SDS011;51043;52.406;9.690;2023-03-19T15:26:10;4.13;;;2.53;;
64633;SDS011;51043;52.406;9.690;2023-03-19T15:28:46;3.80;;;2.50;;
64633;SDS011;51043;52.406;9.690;2023-03-19T15:31:19;4.13;;;2.65;;
64633;SDS011;51043;52.406;9.690;2023-03-19T15:34:16;3.95;;;2.50;;
64633;SDS011;51043;52.406;9.690;2023-03-19T15:36:44;5.68;;;2.85;;
64633;SDS011;51043;52.406;9.690;2023-03-19T15:39:15;5.53;;;2.50;;
64633;SDS011;51043;52.406;9.690;2023-03-19T15:41:45;3.45;;;2.60;;
64633;SDS011;51043;52.406;9.690;2023-03-19T15:44:19;2.88;;;2.42;;
64633;SDS011;51043;52.406;9.690;2023-03-19T15:46:57;2.88;;;2.67;;
64633;SDS011;51043;52.406;9.690;2023-03-19T15:49:28;6.28;;;3.05;;
64633;SDS011;51043;52.406;9.690;2023-03-19T15:52:09;3.38;;;2.70;;
64633;SDS011;51043;52.406;9.690;2023-03-19T15:54:40;3.10;;;2.53;;
64633;SDS011;51043;52.406;9.690;2023-03-19T15:57:09;2.80;;;2.50;;
64633;SDS011;51043;52.406;9.690;2023-03-19T15:59:40;4.30;;;2.72;;
64633;SDS011;51043;52.406;9.690;2023-03-19T16:02:43;4.88;;;2.67;;
64633;SDS011;51043;52.406;9.690;2023-03-19T16:05:24;3.53;;;2.97;;
64633;SDS011;51043;52.406;9.690;2023-03-19T16:07:59;4.05;;;2.72;;
64633;SDS011;51043;52.406;9.690;2023-03-19T16:11:11;2.90;;;2.58;;
64633;SDS011;51043;52.406;9.690;2023-03-19T16:13:40;4.20;;;2.85;;
64633;SDS011;51043;52.406;9.690;2023-03-19T16:21:36;3.75;;;2.92;;
64633;SDS011;51043;52.406;9.690;2023-03-19T16:24:18;4.93;;;2.95;;
64633;SDS011;51043;52.406;9.690;2023-03-19T16:26:56;5.85;;;2.88;;
64633;SDS011;51043;52.406;9.690;2023-03-19T16:29:27;3.30;;;2.60;;
64633;SDS011;51043;52.406;9.690;2023-03-19T16:31:58;2.72;;;2.50;;
64633;SDS011;51043;52.406;9.690;2023-03-19T16:34:45;2.80;;;2.60;;
64633;SDS011;51043;52.406;9.690;2023-03-19T16:47:56;3.35;;;2.70;;
64633;SDS011;51043;52.406;9.690;2023-03-19T16:50:29;4.53;;;3.00;;
64633;SDS011;51043;52.406;9.690;2023-03-19T16:52:58;4.22;;;2.97;;
64633;SDS011;51043;52.406;9.690;2023-03-19T16:55:32;3.90;;;3.20;;
64633;SDS011;51043;52.406;9.690;2023-03-19T16:58:02;5.05;;;3.50;;
64633;SDS011;51043;52.406;9.690;2023-03-19T17:00:30;5.25;;;3.70;;
64633;SDS011;51043;52.406;9.690;2023-03-19T17:02:58;6.90;;;3.85;;
64633;SDS011;51043;52.406;9.690;2023-03-19T17:05:28;4.80;;;4.00;;
64633;SDS011;51043;52.406;9.690;2023-03-19T17:07:55;3.97;;;3.42;;
64633;SDS011;51043;52.406;9.690;2023-03-19T17:10:23;4.28;;;3.60;;
64633;SDS011;51043;52.406;9.690;2023-03-19T17:12:52;5.60;;;3.70;;